createdAt,value
2022-10-04T00:01:53.471Z,9.27
2022-10-04T00:04:44.579Z,9.25
2022-10-04T00:07:14.144Z,9.22
2022-10-04T00:10:04.157Z,9.20
2022-10-04T00:12:35.284Z,9.26
2022-10-04T00:15:17.595Z,9.25
2022-10-04T00:17:44.407Z,9.28
2022-10-04T00:20:49.876Z,9.35
2022-10-04T00:23:25.541Z,9.33
2022-10-04T00:25:55.956Z,9.24
2022-10-04T00:28:25.710Z,9.29
2022-10-04T00:31:15.964Z,9.33
2022-10-04T00:33:42.583Z,9.34
2022-10-04T00:36:24.324Z,9.39
2022-10-04T00:39:08.947Z,9.41
2022-10-04T00:41:47.355Z,9.35
2022-10-04T00:44:45.796Z,9.52
2022-10-04T00:47:31.939Z,9.63
2022-10-04T00:50:17.699Z,9.73
2022-10-04T00:52:51.053Z,9.73
2022-10-04T00:55:33.254Z,9.84
2022-10-04T00:58:03.069Z,9.57
2022-10-04T01:00:33.617Z,9.50
2022-10-04T01:03:14.983Z,9.45
2022-10-04T01:05:47.926Z,9.44
2022-10-04T01:08:35.860Z,9.57
2022-10-04T01:11:16.988Z,9.45
2022-10-04T01:13:51.902Z,9.44
2022-10-04T01:16:19.853Z,9.50
2022-10-04T01:18:47.664Z,9.43
2022-10-04T01:21:23.407Z,9.37
2022-10-04T01:23:52.347Z,9.41
2022-10-04T01:26:32.457Z,9.45
2022-10-04T01:29:02.314Z,9.48
2022-10-04T01:31:31.395Z,9.49
2022-10-04T01:34:00.341Z,9.52
2022-10-04T01:36:27.894Z,9.61
2022-10-04T01:38:55.579Z,9.62
2022-10-04T01:41:29.345Z,9.60
2022-10-04T01:44:01.102Z,9.56
2022-10-04T01:46:36.301Z,9.47
2022-10-04T01:49:12.704Z,9.50
2022-10-04T01:51:50.000Z,9.51
2022-10-04T01:54:21.673Z,9.51
2022-10-04T01:56:51.757Z,9.50
2022-10-04T01:59:26.695Z,9.53
2022-10-04T02:02:00.344Z,9.54
2022-10-04T02:04:38.933Z,9.61
2022-10-04T02:07:13.847Z,9.58
2022-10-04T02:09:43.684Z,9.61
2022-10-04T02:12:16.392Z,9.68
2022-10-04T02:14:53.241Z,9.71
2022-10-04T02:17:28.583Z,9.68
2022-10-04T02:19:56.974Z,9.78
2022-10-04T02:22:25.230Z,9.69
2022-10-04T02:24:54.902Z,9.75
2022-10-04T02:27:27.618Z,9.81
2022-10-04T02:30:08.175Z,9.78
2022-10-04T02:32:54.819Z,9.79
2022-10-04T02:35:21.675Z,9.79
2022-10-04T02:38:05.474Z,9.82
2022-10-04T02:40:40.961Z,9.89
2022-10-04T02:43:15.807Z,9.95
2022-10-04T02:45:49.658Z,9.98
2022-10-04T02:48:40.386Z,9.99
2022-10-04T02:51:14.487Z,10.05
2022-10-04T02:54:03.318Z,10.03
2022-10-04T02:56:32.462Z,10.12
2022-10-04T02:59:04.673Z,10.11
2022-10-04T03:01:49.874Z,10.08
2022-10-04T03:04:16.729Z,10.12
2022-10-04T03:06:46.046Z,10.12
2022-10-04T03:09:14.574Z,10.17
2022-10-04T03:11:42.530Z,10.09
2022-10-04T03:14:25.404Z,10.13
2022-10-04T03:16:55.126Z,10.04
2022-10-04T03:19:23.962Z,10.06
2022-10-04T03:21:54.519Z,10.07
2022-10-04T03:24:25.999Z,10.14
2022-10-04T03:26:56.036Z,10.20
2022-10-04T03:29:25.062Z,10.21
2022-10-04T03:31:57.569Z,10.22
2022-10-04T03:34:39.256Z,10.21
2022-10-04T03:37:16.343Z,10.27
2022-10-04T03:39:52.425Z,10.28
2022-10-04T03:42:23.046Z,10.27
2022-10-04T03:44:52.357Z,10.30
2022-10-04T03:47:27.796Z,10.31
2022-10-04T03:49:58.384Z,10.28
2022-10-04T03:52:29.603Z,10.25
2022-10-04T03:55:00.326Z,10.31
2022-10-04T03:57:27.307Z,10.36
2022-10-04T03:59:54.309Z,10.37
2022-10-04T04:02:26.547Z,10.48
2022-10-04T04:05:21.103Z,10.54
2022-10-04T04:07:58.102Z,10.58
2022-10-04T04:10:29.130Z,10.52
2022-10-04T04:13:11.119Z,10.60
2022-10-04T04:15:40.615Z,10.64
2022-10-04T04:18:15.078Z,10.53
2022-10-04T04:20:43.770Z,10.52
2022-10-04T04:23:25.254Z,10.49
2022-10-04T04:25:55.722Z,10.49
2022-10-04T04:28:41.545Z,10.46
2022-10-04T04:31:32.907Z,10.47
2022-10-04T04:34:02.410Z,10.50
2022-10-04T04:36:31.939Z,10.56
2022-10-04T04:39:33.061Z,10.55
2022-10-04T04:42:02.171Z,10.56
2022-10-04T04:44:29.764Z,10.57
2022-10-04T04:47:00.354Z,10.54
2022-10-04T04:49:31.547Z,10.55
2022-10-04T04:51:58.389Z,10.52
2022-10-04T04:54:27.380Z,10.51
2022-10-04T04:56:56.135Z,10.45
2022-10-04T04:59:24.751Z,10.51
2022-10-04T05:01:51.413Z,10.48
2022-10-04T05:04:24.026Z,10.42
2022-10-04T05:07:15.596Z,10.48
2022-10-04T05:09:42.138Z,10.49
2022-10-04T05:12:17.112Z,10.51
2022-10-04T05:14:52.233Z,10.51
2022-10-04T05:17:23.000Z,10.51
2022-10-04T05:19:50.610Z,10.54
2022-10-04T05:22:22.937Z,10.50
2022-10-04T05:24:54.123Z,10.41
2022-10-04T05:27:30.850Z,10.50
2022-10-04T05:30:36.402Z,10.58
2022-10-04T05:33:08.306Z,10.58
2022-10-04T05:35:57.021Z,10.65
2022-10-04T05:38:27.823Z,10.69
2022-10-04T05:41:00.668Z,10.77
2022-10-04T05:43:35.341Z,10.82
2022-10-04T05:46:20.276Z,10.79
2022-10-04T05:48:52.921Z,10.72
2022-10-04T05:51:25.523Z,10.74
2022-10-04T05:53:52.765Z,10.79
2022-10-04T05:56:40.563Z,10.81
2022-10-04T05:59:19.238Z,10.86
2022-10-04T06:02:00.466Z,10.91
2022-10-04T06:05:00.709Z,10.84
2022-10-04T06:07:34.648Z,10.91
2022-10-04T06:10:10.334Z,10.96
2022-10-04T06:12:44.616Z,10.89
2022-10-04T06:15:21.166Z,10.85
2022-10-04T06:17:55.553Z,10.82
2022-10-04T06:20:52.908Z,10.85
2022-10-04T06:23:21.256Z,10.89
2022-10-04T06:25:53.865Z,10.88
2022-10-04T06:28:31.160Z,10.92
2022-10-04T06:31:24.477Z,11.00
2022-10-04T06:34:12.927Z,11.09
2022-10-04T06:36:57.299Z,11.17
2022-10-04T06:40:12.637Z,11.28
2022-10-04T06:43:09.752Z,11.44
2022-10-04T06:45:54.985Z,11.38
2022-10-04T06:48:33.639Z,11.41
2022-10-04T06:51:17.240Z,11.47
2022-10-04T06:53:49.655Z,11.57
2022-10-04T06:56:57.836Z,11.54
2022-10-04T06:59:52.703Z,11.64
2022-10-04T07:02:26.700Z,11.81
2022-10-04T07:05:08.073Z,11.89
2022-10-04T07:07:38.721Z,11.82
2022-10-04T07:10:32.907Z,11.87
2022-10-04T07:13:20.667Z,12.00
2022-10-04T07:15:55.664Z,12.27
2022-10-04T07:18:37.748Z,12.68
2022-10-04T07:21:11.000Z,12.91
2022-10-04T07:24:01.850Z,12.86
2022-10-04T07:26:44.120Z,12.70
2022-10-04T07:29:29.750Z,12.45
2022-10-04T07:32:05.706Z,12.46
2022-10-04T07:34:53.188Z,12.54
2022-10-04T07:37:21.574Z,12.42
2022-10-04T07:39:57.204Z,12.63
2022-10-04T07:42:46.038Z,12.80
2022-10-04T07:45:20.906Z,12.80
2022-10-04T07:47:47.521Z,12.69
2022-10-04T07:50:22.353Z,12.69
2022-10-04T07:52:48.944Z,12.73
2022-10-04T07:55:25.889Z,12.55
2022-10-04T07:58:26.619Z,12.67
2022-10-04T08:01:04.444Z,12.68
2022-10-04T08:03:58.431Z,12.53
2022-10-04T08:06:46.488Z,12.51
2022-10-04T08:09:36.636Z,12.43
2022-10-04T08:12:26.337Z,12.29
2022-10-04T08:15:13.819Z,12.33
2022-10-04T08:17:48.488Z,12.26
2022-10-04T08:20:43.782Z,12.09
2022-10-04T08:23:37.805Z,11.94
2022-10-04T08:26:27.353Z,11.79
2022-10-04T08:29:43.358Z,11.53
2022-10-04T08:32:28.273Z,11.17
2022-10-04T08:35:16.503Z,11.02
2022-10-04T08:38:08.979Z,10.90
2022-10-04T08:41:11.257Z,10.78
2022-10-04T08:43:56.833Z,10.61
2022-10-04T08:47:05.596Z,10.48
2022-10-04T08:49:32.043Z,10.53
2022-10-04T08:52:12.611Z,10.51
2022-10-04T08:55:10.334Z,10.56
2022-10-04T08:58:10.719Z,10.52
2022-10-04T09:01:02.482Z,10.52
2022-10-04T09:04:01.748Z,10.42
2022-10-04T09:06:43.687Z,10.48
2022-10-04T09:09:34.219Z,10.54
2022-10-04T09:12:20.268Z,10.53
2022-10-04T09:15:17.009Z,10.64
2022-10-04T09:18:14.331Z,10.69
2022-10-04T09:21:02.565Z,10.81
2022-10-04T09:23:32.225Z,10.75
2022-10-04T09:26:06.458Z,10.67
2022-10-04T09:29:04.821Z,10.78
2022-10-04T09:31:48.479Z,10.90
2022-10-04T09:34:50.353Z,10.82
2022-10-04T09:37:36.344Z,11.13
2022-10-04T09:40:22.063Z,11.30
2022-10-04T09:43:07.577Z,11.27
2022-10-04T09:45:42.997Z,11.40
2022-10-04T09:48:37.068Z,11.38
2022-10-04T09:51:09.569Z,11.46
2022-10-04T09:53:54.447Z,11.50
2022-10-04T09:56:59.332Z,11.50
2022-10-04T09:59:57.293Z,11.59
2022-10-04T10:02:42.859Z,11.57
2022-10-04T10:05:45.112Z,11.58
2022-10-04T10:08:15.712Z,11.64
2022-10-04T10:11:14.497Z,11.75
2022-10-04T10:13:56.000Z,11.91
2022-10-04T10:16:49.152Z,11.98
2022-10-04T10:19:42.088Z,11.97
2022-10-04T10:22:36.007Z,11.99
2022-10-04T10:25:27.396Z,12.41
2022-10-04T10:28:03.530Z,12.55
2022-10-04T10:30:54.398Z,12.88
2022-10-04T10:33:32.216Z,13.22
2022-10-04T10:36:13.325Z,13.56
2022-10-04T10:38:55.114Z,13.72
2022-10-04T10:41:46.336Z,14.03
2022-10-04T10:44:58.573Z,14.14
2022-10-04T10:47:37.771Z,14.29
2022-10-04T10:50:16.083Z,14.45
2022-10-04T10:53:24.611Z,13.98
2022-10-04T10:56:16.211Z,13.99
2022-10-04T10:59:18.111Z,14.09
2022-10-04T11:02:04.853Z,14.08
2022-10-04T11:04:38.280Z,14.24
2022-10-04T11:07:32.071Z,14.41
2022-10-04T11:10:10.887Z,14.52
2022-10-04T11:12:56.018Z,14.66
2022-10-04T11:15:55.594Z,14.77
2022-10-04T11:18:25.266Z,14.58
2022-10-04T11:21:21.815Z,14.79
2022-10-04T11:24:26.107Z,14.73
2022-10-04T11:27:05.357Z,14.78
2022-10-04T11:29:32.045Z,14.83
2022-10-04T11:32:01.362Z,14.90
2022-10-04T11:34:35.678Z,14.87
2022-10-04T11:37:15.345Z,14.86
2022-10-04T11:40:00.375Z,14.77
2022-10-04T11:42:42.074Z,14.76
2022-10-04T11:45:38.285Z,14.87
2022-10-04T11:48:19.728Z,14.88
2022-10-04T11:51:18.598Z,14.97
2022-10-04T11:54:04.365Z,14.79
2022-10-04T11:57:09.283Z,14.90
2022-10-04T12:00:00.133Z,15.08
2022-10-04T12:02:32.502Z,15.27
2022-10-04T12:05:12.760Z,15.37
2022-10-04T12:07:57.308Z,15.20
2022-10-04T12:10:23.807Z,15.24
2022-10-04T12:13:04.781Z,15.15
2022-10-04T12:15:36.189Z,15.03
2022-10-04T12:18:26.507Z,15.02
2022-10-04T12:21:09.251Z,15.30
2022-10-04T12:24:00.120Z,15.41
2022-10-04T12:26:55.781Z,15.60
2022-10-04T12:30:13.112Z,15.68
2022-10-04T12:32:58.043Z,15.76
2022-10-04T12:35:27.798Z,16.02
2022-10-04T12:38:08.299Z,16.12
2022-10-04T12:40:43.727Z,16.33
2022-10-04T12:43:37.107Z,15.87
2022-10-04T12:46:25.344Z,15.49
2022-10-04T12:49:13.381Z,15.55
2022-10-04T12:52:20.766Z,15.67
2022-10-04T12:54:51.356Z,15.53
2022-10-04T12:57:44.278Z,15.37
2022-10-04T13:00:19.199Z,15.46
2022-10-04T13:02:48.985Z,15.24
2022-10-04T13:05:46.056Z,15.16
2022-10-04T13:08:47.040Z,15.14
2022-10-04T13:11:52.438Z,14.85
2022-10-04T13:14:33.932Z,14.92
2022-10-04T13:17:34.573Z,14.86
2022-10-04T13:19:56.040Z,14.72
2022-10-04T13:25:45.615Z,14.77
2022-10-04T13:28:24.703Z,14.55
2022-10-04T13:31:13.644Z,14.74
2022-10-04T13:33:50.923Z,14.84
2022-10-04T13:36:20.473Z,14.86
2022-10-04T13:39:28.054Z,14.99
2022-10-04T13:42:12.942Z,14.99
2022-10-04T13:44:59.933Z,14.93
2022-10-04T13:47:32.484Z,14.86
2022-10-04T13:50:41.252Z,14.95
2022-10-04T13:53:44.651Z,15.01
2022-10-04T13:56:32.557Z,15.10
2022-10-04T13:59:17.442Z,14.87
2022-10-04T14:01:55.853Z,14.90
2022-10-04T14:04:43.100Z,14.76
2022-10-04T14:07:34.572Z,14.73
2022-10-04T14:10:17.362Z,14.54
2022-10-04T14:12:49.639Z,14.33
2022-10-04T14:15:53.809Z,14.26
2022-10-04T14:18:48.128Z,14.04
2022-10-04T14:21:53.124Z,13.82
2022-10-04T14:24:42.464Z,13.77
2022-10-04T14:27:21.386Z,13.76
2022-10-04T14:29:50.523Z,13.76
2022-10-04T14:32:52.225Z,13.78
2022-10-04T14:35:30.343Z,13.79
2022-10-04T14:37:57.309Z,13.66
2022-10-04T14:40:39.188Z,13.80
2022-10-04T14:43:45.207Z,13.99
2022-10-04T14:46:51.014Z,13.96
2022-10-04T14:49:51.322Z,14.32
2022-10-04T14:52:39.889Z,14.51
2022-10-04T14:55:29.529Z,14.48
2022-10-04T14:58:02.441Z,14.47
2022-10-04T15:00:47.669Z,14.46
2022-10-04T15:03:30.346Z,14.57
2022-10-04T15:06:09.904Z,14.61
2022-10-04T15:09:08.502Z,14.69
2022-10-04T15:12:21.495Z,14.72
2022-10-04T15:15:02.653Z,14.77
2022-10-04T15:17:38.004Z,14.74
2022-10-04T15:20:20.010Z,14.69
2022-10-04T15:22:55.040Z,14.66
2022-10-04T15:25:42.153Z,14.65
2022-10-04T15:28:52.981Z,14.56
2022-10-04T15:31:37.312Z,14.46
2022-10-04T15:34:49.929Z,14.32
2022-10-04T15:37:34.718Z,14.33
2022-10-04T15:40:24.169Z,14.28
2022-10-04T15:43:32.794Z,14.22
2022-10-04T15:46:09.900Z,14.20
2022-10-04T15:48:51.776Z,14.18
2022-10-04T15:51:59.975Z,13.94
2022-10-04T15:54:47.368Z,13.93
2022-10-04T15:57:32.727Z,13.86
2022-10-04T16:00:13.378Z,13.75
2022-10-04T16:03:13.584Z,13.58
2022-10-04T16:06:01.168Z,13.48
2022-10-04T16:08:27.700Z,13.32
2022-10-04T16:11:12.504Z,13.11
2022-10-04T16:13:55.668Z,13.09
2022-10-04T16:16:42.061Z,13.06
2022-10-04T16:19:30.307Z,12.97
2022-10-04T16:22:17.357Z,12.85
2022-10-04T16:24:50.761Z,12.73
2022-10-04T16:27:37.001Z,12.65
2022-10-04T16:30:27.444Z,12.57
2022-10-04T16:33:13.695Z,12.52
2022-10-04T16:35:46.325Z,12.41
2022-10-04T16:38:12.949Z,12.36
2022-10-04T16:40:51.852Z,12.30
2022-10-04T16:43:18.443Z,12.22
2022-10-04T16:46:13.393Z,12.19
2022-10-04T16:48:49.105Z,12.10
2022-10-04T16:51:18.467Z,12.00
2022-10-04T16:54:11.058Z,11.93
2022-10-04T16:57:03.099Z,11.86
2022-10-04T16:59:38.997Z,11.82
2022-10-04T17:02:41.665Z,11.78
2022-10-04T17:05:25.513Z,11.73
2022-10-04T17:08:21.166Z,11.66
2022-10-04T17:10:48.925Z,11.53
2022-10-04T17:13:25.631Z,11.43
2022-10-04T17:16:13.810Z,11.32
2022-10-04T17:18:49.105Z,11.25
2022-10-04T17:21:43.306Z,11.16
2022-10-04T17:24:34.320Z,11.12
2022-10-04T17:27:26.260Z,11.08
2022-10-04T17:30:01.917Z,11.01
2022-10-04T17:32:51.866Z,10.90
2022-10-04T17:35:44.284Z,10.87
2022-10-04T17:38:26.817Z,10.81
2022-10-04T17:41:02.581Z,10.82
2022-10-04T17:43:44.655Z,10.77
2022-10-04T17:46:20.466Z,10.74
2022-10-04T17:49:13.769Z,10.64
2022-10-04T17:52:09.379Z,10.63
2022-10-04T17:54:57.742Z,10.51
2022-10-04T17:57:34.229Z,10.50
2022-10-04T18:00:10.394Z,10.50
2022-10-04T18:03:01.768Z,10.41
2022-10-04T18:05:47.131Z,10.34
2022-10-04T18:08:32.728Z,10.34
2022-10-04T18:11:06.793Z,10.28
2022-10-04T18:13:33.301Z,10.23
2022-10-04T18:16:31.020Z,10.30
2022-10-04T18:19:22.953Z,10.34
2022-10-04T18:21:52.904Z,10.37
2022-10-04T18:24:21.615Z,10.40
2022-10-04T18:27:05.530Z,10.35
2022-10-04T18:29:39.570Z,10.14
2022-10-04T18:32:25.697Z,10.03
2022-10-04T18:34:57.322Z,9.93
2022-10-04T18:37:37.280Z,9.90
2022-10-04T18:40:41.404Z,9.87
2022-10-04T18:43:29.849Z,9.73
2022-10-04T18:46:15.774Z,9.57
2022-10-04T18:48:52.756Z,9.68
2022-10-04T18:51:31.475Z,9.65
2022-10-04T18:54:21.467Z,9.72
2022-10-04T18:56:51.436Z,9.44
2022-10-04T19:00:11.304Z,9.37
2022-10-04T19:03:00.209Z,9.26
2022-10-04T19:05:51.484Z,9.20
2022-10-04T19:08:29.018Z,9.20
2022-10-04T19:11:09.563Z,9.19
2022-10-04T19:13:47.010Z,9.30
2022-10-04T19:16:36.273Z,9.23
2022-10-04T19:19:06.034Z,9.13
2022-10-04T19:21:54.994Z,9.09
2022-10-04T19:25:15.732Z,9.10
2022-10-04T19:28:00.636Z,9.08
2022-10-04T19:30:42.293Z,9.03
2022-10-04T19:33:20.664Z,8.89
2022-10-04T19:36:22.320Z,8.91
2022-10-04T19:38:58.206Z,8.82
2022-10-04T19:42:04.403Z,8.74
2022-10-04T19:44:52.103Z,8.75
2022-10-04T19:48:00.386Z,8.73
2022-10-04T19:51:08.560Z,8.74
2022-10-04T19:53:42.534Z,8.58
2022-10-04T19:56:20.745Z,8.59
2022-10-04T19:59:21.720Z,8.67
2022-10-04T20:01:50.057Z,8.70
2022-10-04T20:04:35.844Z,8.73
2022-10-04T20:07:05.371Z,8.70
2022-10-04T20:09:37.924Z,8.65
2022-10-04T20:12:05.543Z,8.68
2022-10-04T20:14:32.238Z,8.69
2022-10-04T20:17:00.789Z,8.60
2022-10-04T20:19:27.327Z,8.59
2022-10-04T20:21:54.976Z,8.65
2022-10-04T20:24:47.701Z,8.57
2022-10-04T20:27:23.481Z,8.53
2022-10-04T20:29:51.676Z,8.48
2022-10-04T20:32:27.497Z,8.64
2022-10-04T20:34:58.390Z,8.57
2022-10-04T20:37:43.680Z,8.45
2022-10-04T20:40:30.330Z,8.48
2022-10-04T20:43:15.298Z,8.38
2022-10-04T20:45:46.231Z,8.35
2022-10-04T20:48:24.029Z,8.23
2022-10-04T20:50:52.516Z,8.23
2022-10-04T20:53:28.371Z,8.25
2022-10-04T20:56:11.816Z,8.25
2022-10-04T20:58:40.392Z,8.21
2022-10-04T21:01:29.794Z,8.22
2022-10-04T21:04:32.643Z,8.21
2022-10-04T21:06:59.883Z,8.06
2022-10-04T21:09:27.866Z,8.03
2022-10-04T21:11:56.304Z,7.97
2022-10-04T21:14:37.174Z,7.95
2022-10-04T21:17:29.275Z,7.92
2022-10-04T21:19:55.946Z,7.91
2022-10-04T21:22:31.211Z,7.88
2022-10-04T21:25:04.006Z,7.82
2022-10-04T21:27:38.732Z,7.64
2022-10-04T21:30:14.331Z,7.57
2022-10-04T21:32:41.093Z,7.42
2022-10-04T21:35:08.917Z,7.35
2022-10-04T21:37:35.935Z,7.31
2022-10-04T21:40:03.632Z,7.34
2022-10-04T21:42:30.187Z,7.36
2022-10-04T21:44:56.855Z,7.43
2022-10-04T21:47:23.603Z,7.46
2022-10-04T21:49:51.801Z,7.44
2022-10-04T21:52:18.549Z,7.23
2022-10-04T21:54:45.601Z,7.12
2022-10-04T21:57:13.052Z,7.11
2022-10-04T21:59:39.577Z,7.18
2022-10-04T22:02:07.833Z,7.19
2022-10-04T22:04:34.543Z,7.22
2022-10-04T22:07:01.260Z,7.15
2022-10-04T22:09:28.013Z,7.14
2022-10-04T22:11:54.512Z,7.12
2022-10-04T22:14:21.037Z,6.95
2022-10-04T22:16:47.987Z,6.92
2022-10-04T22:19:14.716Z,6.93
2022-10-04T22:21:41.236Z,6.95
2022-10-04T22:24:17.269Z,6.92
2022-10-04T22:26:44.305Z,6.93
2022-10-04T22:29:16.454Z,6.82
2022-10-04T22:31:49.335Z,6.82
2022-10-04T22:34:19.178Z,6.92
2022-10-04T22:36:48.338Z,6.96
2022-10-04T22:39:20.290Z,6.94
2022-10-04T22:41:53.322Z,6.91
2022-10-04T22:44:22.619Z,6.92
2022-10-04T22:46:54.980Z,6.89
2022-10-04T22:49:24.381Z,6.87
2022-10-04T22:51:53.282Z,6.83
2022-10-04T22:54:24.013Z,6.87
2022-10-04T22:56:51.855Z,6.87
2022-10-04T22:59:20.897Z,6.72
2022-10-04T23:01:48.500Z,6.67
2022-10-04T23:04:23.692Z,6.62
2022-10-04T23:06:51.277Z,6.54
2022-10-04T23:09:18.335Z,6.51
2022-10-04T23:11:45.093Z,6.59
2022-10-04T23:14:12.034Z,6.73
2022-10-04T23:16:43.022Z,6.72
2022-10-04T23:19:13.650Z,6.48
2022-10-04T23:21:43.803Z,6.43
2022-10-04T23:24:17.637Z,6.40
2022-10-04T23:26:52.697Z,6.31
2022-10-04T23:29:30.038Z,6.58
2022-10-04T23:31:57.617Z,6.67
2022-10-04T23:34:33.178Z,6.67
2022-10-04T23:37:00.064Z,6.63
2022-10-04T23:39:36.310Z,6.61
2022-10-04T23:42:13.473Z,6.52
2022-10-04T23:44:40.112Z,6.48
2022-10-04T23:47:15.987Z,6.51
2022-10-04T23:49:43.100Z,6.56
2022-10-04T23:52:18.801Z,6.59
2022-10-04T23:54:45.704Z,6.56
2022-10-04T23:57:21.441Z,6.51
2022-10-04T23:59:48.921Z,6.47
